sensor_id;sensor_type;location;lat;lon;timestamp;P1;durP1;ratioP1;P2;durP2;ratioP2
83251;SDS011;73147;50.230;2.114;2024-03-02T00:01:10;3.35;;;0.55;;
83251;SDS011;73147;50.230;2.114;2024-03-02T00:03:37;2.67;;;0.35;;
83251;SDS011;73147;50.230;2.114;2024-03-02T00:06:03;2.53;;;0.55;;
83251;SDS011;73147;50.230;2.114;2024-03-02T00:08:30;3.17;;;0.70;;
83251;SDS011;73147;50.230;2.114;2024-03-02T00:10:59;4.05;;;0.90;;
83251;SDS011;73147;50.230;2.114;2024-03-02T00:13:27;4.80;;;0.30;;
83251;SDS011;73147;50.230;2.114;2024-03-02T00:15:56;4.80;;;0.88;;
83251;SDS011;73147;50.230;2.114;2024-03-02T00:18:35;1.75;;;0.22;;
83251;SDS011;73147;50.230;2.114;2024-03-02T00:21:05;1.65;;;0.22;;
83251;SDS011;73147;50.230;2.114;2024-03-02T00:23:34;3.05;;;0.63;;
83251;SDS011;73147;50.230;2.114;2024-03-02T00:26:01;2.22;;;0.50;;
83251;SDS011;73147;50.230;2.114;2024-03-02T00:28:29;3.70;;;0.73;;
83251;SDS011;73147;50.230;2.114;2024-03-02T00:31:05;2.10;;;0.25;;
83251;SDS011;73147;50.230;2.114;2024-03-02T00:33:33;3.20;;;0.60;;
83251;SDS011;73147;50.230;2.114;2024-03-02T00:35:59;3.75;;;0.88;;
83251;SDS011;73147;50.230;2.114;2024-03-02T00:38:26;5.90;;;0.63;;
83251;SDS011;73147;50.230;2.114;2024-03-02T00:40:52;6.43;;;0.80;;
83251;SDS011;73147;50.230;2.114;2024-03-02T00:45:47;2.95;;;0.73;;
83251;SDS011;73147;50.230;2.114;2024-03-02T00:48:15;4.38;;;0.28;;
83251;SDS011;73147;50.230;2.114;2024-03-02T00:50:41;2.63;;;0.73;;
83251;SDS011;73147;50.230;2.114;2024-03-02T00:53:10;4.00;;;0.50;;
83251;SDS011;73147;50.230;2.114;2024-03-02T00:55:38;7.55;;;0.55;;
83251;SDS011;73147;50.230;2.114;2024-03-02T00:58:04;4.25;;;0.65;;
83251;SDS011;73147;50.230;2.114;2024-03-02T01:00:30;4.55;;;0.80;;
83251;SDS011;73147;50.230;2.114;2024-03-02T01:02:57;2.03;;;0.52;;
83251;SDS011;73147;50.230;2.114;2024-03-02T01:05:23;2.35;;;0.95;;
83251;SDS011;73147;50.230;2.114;2024-03-02T01:07:52;3.05;;;0.45;;
83251;SDS011;73147;50.230;2.114;2024-03-02T01:10:18;3.38;;;0.35;;
83251;SDS011;73147;50.230;2.114;2024-03-02T01:12:45;3.35;;;0.77;;
83251;SDS011;73147;50.230;2.114;2024-03-02T01:15:11;2.00;;;0.80;;
83251;SDS011;73147;50.230;2.114;2024-03-02T01:17:37;3.28;;;0.20;;
83251;SDS011;73147;50.230;2.114;2024-03-02T01:20:07;3.08;;;0.50;;
83251;SDS011;73147;50.230;2.114;2024-03-02T01:22:34;5.22;;;0.47;;
83251;SDS011;73147;50.230;2.114;2024-03-02T01:25:01;2.53;;;0.55;;
83251;SDS011;73147;50.230;2.114;2024-03-02T01:27:27;4.78;;;0.45;;
83251;SDS011;73147;50.230;2.114;2024-03-02T01:29:53;3.40;;;0.50;;
83251;SDS011;73147;50.230;2.114;2024-03-02T01:32:19;3.40;;;0.47;;
83251;SDS011;73147;50.230;2.114;2024-03-02T01:34:45;3.65;;;0.70;;
83251;SDS011;73147;50.230;2.114;2024-03-02T01:37:12;6.07;;;0.73;;
83251;SDS011;73147;50.230;2.114;2024-03-02T01:39:38;8.82;;;1.98;;
83251;SDS011;73147;50.230;2.114;2024-03-02T01:42:04;6.45;;;1.25;;
83251;SDS011;73147;50.230;2.114;2024-03-02T01:44:30;4.97;;;1.30;;
83251;SDS011;73147;50.230;2.114;2024-03-02T01:46:56;3.08;;;0.73;;
83251;SDS011;73147;50.230;2.114;2024-03-02T01:49:22;6.45;;;0.60;;
83251;SDS011;73147;50.230;2.114;2024-03-02T01:51:48;4.03;;;0.52;;
83251;SDS011;73147;50.230;2.114;2024-03-02T01:54:15;3.63;;;0.98;;
83251;SDS011;73147;50.230;2.114;2024-03-02T01:56:41;3.67;;;0.52;;
83251;SDS011;73147;50.230;2.114;2024-03-02T01:59:07;3.90;;;0.40;;
83251;SDS011;73147;50.230;2.114;2024-03-02T02:01:33;6.53;;;1.60;;
83251;SDS011;73147;50.230;2.114;2024-03-02T02:03:59;4.93;;;0.57;;
83251;SDS011;73147;50.230;2.114;2024-03-02T02:06:25;3.15;;;0.65;;
83251;SDS011;73147;50.230;2.114;2024-03-02T02:08:52;2.45;;;0.50;;
83251;SDS011;73147;50.230;2.114;2024-03-02T02:11:18;3.78;;;0.45;;
83251;SDS011;73147;50.230;2.114;2024-03-02T02:13:44;6.70;;;0.55;;
83251;SDS011;73147;50.230;2.114;2024-03-02T02:16:10;2.42;;;0.43;;
83251;SDS011;73147;50.230;2.114;2024-03-02T02:18:37;4.43;;;0.90;;
83251;SDS011;73147;50.230;2.114;2024-03-02T02:21:03;3.42;;;0.65;;
83251;SDS011;73147;50.230;2.114;2024-03-02T02:23:29;4.78;;;0.82;;
83251;SDS011;73147;50.230;2.114;2024-03-02T02:25:55;3.22;;;0.38;;
83251;SDS011;73147;50.230;2.114;2024-03-02T02:28:21;3.67;;;0.40;;
83251;SDS011;73147;50.230;2.114;2024-03-02T02:30:47;2.95;;;0.52;;
83251;SDS011;73147;50.230;2.114;2024-03-02T02:33:16;3.45;;;0.50;;
83251;SDS011;73147;50.230;2.114;2024-03-02T02:35:42;5.60;;;1.00;;
83251;SDS011;73147;50.230;2.114;2024-03-02T02:38:11;1.23;;;0.40;;
83251;SDS011;73147;50.230;2.114;2024-03-02T02:40:37;2.88;;;0.45;;
83251;SDS011;73147;50.230;2.114;2024-03-02T02:43:03;3.75;;;0.55;;
83251;SDS011;73147;50.230;2.114;2024-03-02T02:45:29;2.92;;;0.63;;
83251;SDS011;73147;50.230;2.114;2024-03-02T02:47:55;2.80;;;0.50;;
83251;SDS011;73147;50.230;2.114;2024-03-02T02:50:21;3.17;;;0.68;;
83251;SDS011;73147;50.230;2.114;2024-03-02T02:52:47;4.35;;;0.70;;
83251;SDS011;73147;50.230;2.114;2024-03-02T02:55:13;8.85;;;0.65;;
83251;SDS011;73147;50.230;2.114;2024-03-02T02:57:41;2.90;;;0.60;;
83251;SDS011;73147;50.230;2.114;2024-03-02T03:00:08;8.23;;;0.45;;
83251;SDS011;73147;50.230;2.114;2024-03-02T03:02:41;4.72;;;0.45;;
83251;SDS011;73147;50.230;2.114;2024-03-02T03:05:11;2.60;;;0.43;;
83251;SDS011;73147;50.230;2.114;2024-03-02T03:07:41;6.57;;;0.82;;
83251;SDS011;73147;50.230;2.114;2024-03-02T03:10:10;3.30;;;0.45;;
83251;SDS011;73147;50.230;2.114;2024-03-02T03:12:36;3.40;;;0.50;;
83251;SDS011;73147;50.230;2.114;2024-03-02T03:15:03;4.45;;;1.15;;
83251;SDS011;73147;50.230;2.114;2024-03-02T03:17:32;7.57;;;1.60;;
83251;SDS011;73147;50.230;2.114;2024-03-02T03:19:59;9.15;;;0.93;;
83251;SDS011;73147;50.230;2.114;2024-03-02T03:22:26;5.65;;;0.22;;
83251;SDS011;73147;50.230;2.114;2024-03-02T03:24:52;7.10;;;0.80;;
83251;SDS011;73147;50.230;2.114;2024-03-02T03:27:18;2.60;;;0.20;;
83251;SDS011;73147;50.230;2.114;2024-03-02T03:29:47;6.05;;;1.42;;
83251;SDS011;73147;50.230;2.114;2024-03-02T03:32:13;5.20;;;0.75;;
83251;SDS011;73147;50.230;2.114;2024-03-02T03:34:39;5.72;;;0.85;;
83251;SDS011;73147;50.230;2.114;2024-03-02T03:37:06;7.15;;;1.30;;
83251;SDS011;73147;50.230;2.114;2024-03-02T03:41:58;5.85;;;0.50;;
83251;SDS011;73147;50.230;2.114;2024-03-02T03:44:24;3.90;;;0.80;;
83251;SDS011;73147;50.230;2.114;2024-03-02T03:46:50;4.57;;;0.40;;
83251;SDS011;73147;50.230;2.114;2024-03-02T03:49:16;3.10;;;0.43;;
83251;SDS011;73147;50.230;2.114;2024-03-02T03:51:45;4.95;;;0.38;;
83251;SDS011;73147;50.230;2.114;2024-03-02T03:54:11;4.93;;;0.65;;
83251;SDS011;73147;50.230;2.114;2024-03-02T03:56:40;4.35;;;0.20;;
83251;SDS011;73147;50.230;2.114;2024-03-02T03:59:06;6.18;;;0.47;;
83251;SDS011;73147;50.230;2.114;2024-03-02T04:01:32;3.80;;;0.50;;
83251;SDS011;73147;50.230;2.114;2024-03-02T04:03:58;6.10;;;0.65;;
83251;SDS011;73147;50.230;2.114;2024-03-02T04:06:27;5.32;;;0.60;;
83251;SDS011;73147;50.230;2.114;2024-03-02T04:08:53;3.75;;;0.50;;
83251;SDS011;73147;50.230;2.114;2024-03-02T04:11:19;3.63;;;0.68;;
83251;SDS011;73147;50.230;2.114;2024-03-02T04:13:45;7.20;;;0.63;;
83251;SDS011;73147;50.230;2.114;2024-03-02T04:16:11;4.32;;;0.28;;
83251;SDS011;73147;50.230;2.114;2024-03-02T04:18:37;4.60;;;0.57;;
83251;SDS011;73147;50.230;2.114;2024-03-02T04:21:04;4.70;;;0.63;;
83251;SDS011;73147;50.230;2.114;2024-03-02T04:23:30;1.55;;;0.63;;
83251;SDS011;73147;50.230;2.114;2024-03-02T04:25:56;4.95;;;0.45;;
83251;SDS011;73147;50.230;2.114;2024-03-02T04:28:22;2.85;;;0.43;;
83251;SDS011;73147;50.230;2.114;2024-03-02T04:30:49;10.30;;;1.73;;
83251;SDS011;73147;50.230;2.114;2024-03-02T04:33:15;4.43;;;0.60;;
83251;SDS011;73147;50.230;2.114;2024-03-02T04:35:41;3.47;;;0.40;;
83251;SDS011;73147;50.230;2.114;2024-03-02T04:38:07;7.60;;;0.75;;
83251;SDS011;73147;50.230;2.114;2024-03-02T04:40:33;2.10;;;0.38;;
83251;SDS011;73147;50.230;2.114;2024-03-02T04:42:59;3.53;;;0.52;;
83251;SDS011;73147;50.230;2.114;2024-03-02T04:45:25;2.30;;;0.45;;
83251;SDS011;73147;50.230;2.114;2024-03-02T04:47:51;3.50;;;0.68;;
83251;SDS011;73147;50.230;2.114;2024-03-02T04:50:17;5.30;;;0.73;;
83251;SDS011;73147;50.230;2.114;2024-03-02T04:52:44;5.72;;;0.45;;
83251;SDS011;73147;50.230;2.114;2024-03-02T04:55:10;8.48;;;0.47;;
83251;SDS011;73147;50.230;2.114;2024-03-02T04:57:42;1.83;;;0.65;;
83251;SDS011;73147;50.230;2.114;2024-03-02T05:00:08;5.47;;;0.38;;
83251;SDS011;73147;50.230;2.114;2024-03-02T05:02:35;6.53;;;0.73;;
83251;SDS011;73147;50.230;2.114;2024-03-02T05:05:01;9.90;;;0.98;;
83251;SDS011;73147;50.230;2.114;2024-03-02T05:07:28;3.63;;;0.63;;
83251;SDS011;73147;50.230;2.114;2024-03-02T05:09:54;5.57;;;1.17;;
83251;SDS011;73147;50.230;2.114;2024-03-02T05:12:20;4.85;;;1.00;;
83251;SDS011;73147;50.230;2.114;2024-03-02T05:15:05;2.13;;;0.32;;
83251;SDS011;73147;50.230;2.114;2024-03-02T05:17:32;2.20;;;0.35;;
83251;SDS011;73147;50.230;2.114;2024-03-02T05:22:24;3.30;;;0.60;;
83251;SDS011;73147;50.230;2.114;2024-03-02T05:27:16;4.50;;;0.75;;
83251;SDS011;73147;50.230;2.114;2024-03-02T05:32:08;7.88;;;0.73;;
83251;SDS011;73147;50.230;2.114;2024-03-02T05:34:34;6.13;;;0.80;;
83251;SDS011;73147;50.230;2.114;2024-03-02T05:37:00;4.85;;;1.08;;
83251;SDS011;73147;50.230;2.114;2024-03-02T05:39:27;8.05;;;0.77;;
83251;SDS011;73147;50.230;2.114;2024-03-02T05:41:53;7.30;;;1.08;;
83251;SDS011;73147;50.230;2.114;2024-03-02T05:44:19;7.35;;;0.30;;
83251;SDS011;73147;50.230;2.114;2024-03-02T05:46:45;4.68;;;0.90;;
83251;SDS011;73147;50.230;2.114;2024-03-02T05:49:11;8.15;;;0.80;;
83251;SDS011;73147;50.230;2.114;2024-03-02T05:51:37;6.78;;;1.52;;
83251;SDS011;73147;50.230;2.114;2024-03-02T05:56:29;4.65;;;0.52;;
83251;SDS011;73147;50.230;2.114;2024-03-02T05:58:55;4.78;;;0.50;;
83251;SDS011;73147;50.230;2.114;2024-03-02T06:01:47;6.25;;;1.08;;
83251;SDS011;73147;50.230;2.114;2024-03-02T06:04:15;3.47;;;0.50;;
83251;SDS011;73147;50.230;2.114;2024-03-02T06:06:41;6.93;;;0.50;;
83251;SDS011;73147;50.230;2.114;2024-03-02T06:09:08;7.55;;;0.77;;
83251;SDS011;73147;50.230;2.114;2024-03-02T06:11:34;8.90;;;0.77;;
83251;SDS011;73147;50.230;2.114;2024-03-02T06:14:01;5.93;;;0.77;;
83251;SDS011;73147;50.230;2.114;2024-03-02T06:16:27;5.30;;;0.75;;
83251;SDS011;73147;50.230;2.114;2024-03-02T06:18:54;6.88;;;1.15;;
83251;SDS011;73147;50.230;2.114;2024-03-02T06:21:22;4.10;;;0.85;;
83251;SDS011;73147;50.230;2.114;2024-03-02T06:23:48;2.67;;;0.43;;
83251;SDS011;73147;50.230;2.114;2024-03-02T06:26:15;7.20;;;1.73;;
83251;SDS011;73147;50.230;2.114;2024-03-02T06:28:41;4.25;;;0.77;;
83251;SDS011;73147;50.230;2.114;2024-03-02T06:31:08;6.60;;;0.73;;
83251;SDS011;73147;50.230;2.114;2024-03-02T06:33:34;7.60;;;0.95;;
83251;SDS011;73147;50.230;2.114;2024-03-02T06:36:00;7.95;;;0.90;;
83251;SDS011;73147;50.230;2.114;2024-03-02T06:38:26;5.50;;;1.48;;
83251;SDS011;73147;50.230;2.114;2024-03-02T06:40:52;6.35;;;1.00;;
83251;SDS011;73147;50.230;2.114;2024-03-02T06:43:18;7.47;;;1.35;;
83251;SDS011;73147;50.230;2.114;2024-03-02T06:45:48;6.20;;;1.75;;
83251;SDS011;73147;50.230;2.114;2024-03-02T06:48:14;7.47;;;1.33;;
83251;SDS011;73147;50.230;2.114;2024-03-02T06:50:44;8.23;;;1.42;;
83251;SDS011;73147;50.230;2.114;2024-03-02T06:53:11;5.32;;;1.95;;
83251;SDS011;73147;50.230;2.114;2024-03-02T06:55:37;4.10;;;0.93;;
83251;SDS011;73147;50.230;2.114;2024-03-02T06:58:03;6.50;;;1.20;;
83251;SDS011;73147;50.230;2.114;2024-03-02T07:00:30;7.57;;;1.92;;
83251;SDS011;73147;50.230;2.114;2024-03-02T07:02:56;7.38;;;2.05;;
83251;SDS011;73147;50.230;2.114;2024-03-02T07:05:22;8.75;;;2.70;;
83251;SDS011;73147;50.230;2.114;2024-03-02T07:10:14;7.93;;;1.55;;
83251;SDS011;73147;50.230;2.114;2024-03-02T07:12:40;9.57;;;2.72;;
83251;SDS011;73147;50.230;2.114;2024-03-02T07:15:06;6.47;;;1.25;;
83251;SDS011;73147;50.230;2.114;2024-03-02T07:17:32;8.25;;;2.08;;
83251;SDS011;73147;50.230;2.114;2024-03-02T07:19:58;8.95;;;1.98;;
83251;SDS011;73147;50.230;2.114;2024-03-02T07:22:24;6.30;;;1.67;;
83251;SDS011;73147;50.230;2.114;2024-03-02T07:24:51;6.35;;;2.22;;
83251;SDS011;73147;50.230;2.114;2024-03-02T07:27:17;11.45;;;2.22;;
83251;SDS011;73147;50.230;2.114;2024-03-02T07:29:43;12.80;;;3.00;;
83251;SDS011;73147;50.230;2.114;2024-03-02T07:32:12;12.90;;;2.50;;
83251;SDS011;73147;50.230;2.114;2024-03-02T07:34:38;11.82;;;2.47;;
83251;SDS011;73147;50.230;2.114;2024-03-02T07:37:04;6.78;;;2.03;;
83251;SDS011;73147;50.230;2.114;2024-03-02T07:39:30;7.47;;;1.48;;
83251;SDS011;73147;50.230;2.114;2024-03-02T07:41:57;6.30;;;2.05;;
83251;SDS011;73147;50.230;2.114;2024-03-02T07:44:26;5.90;;;2.83;;
83251;SDS011;73147;50.230;2.114;2024-03-02T07:46:52;6.00;;;1.75;;
83251;SDS011;73147;50.230;2.114;2024-03-02T07:49:18;5.40;;;1.42;;
83251;SDS011;73147;50.230;2.114;2024-03-02T07:51:44;3.45;;;1.88;;
83251;SDS011;73147;50.230;2.114;2024-03-02T07:54:10;15.00;;;5.97;;
83251;SDS011;73147;50.230;2.114;2024-03-02T07:56:36;5.60;;;2.20;;
83251;SDS011;73147;50.230;2.114;2024-03-02T07:59:03;12.25;;;2.40;;
83251;SDS011;73147;50.230;2.114;2024-03-02T08:01:29;16.70;;;3.80;;
83251;SDS011;73147;50.230;2.114;2024-03-02T08:03:56;12.48;;;1.65;;
83251;SDS011;73147;50.230;2.114;2024-03-02T08:06:24;9.20;;;2.30;;
83251;SDS011;73147;50.230;2.114;2024-03-02T08:08:52;6.43;;;2.40;;
83251;SDS011;73147;50.230;2.114;2024-03-02T08:11:19;10.07;;;1.65;;
83251;SDS011;73147;50.230;2.114;2024-03-02T08:13:45;7.65;;;1.75;;
83251;SDS011;73147;50.230;2.114;2024-03-02T08:16:11;5.13;;;2.22;;
83251;SDS011;73147;50.230;2.114;2024-03-02T08:18:37;5.10;;;1.50;;
83251;SDS011;73147;50.230;2.114;2024-03-02T08:21:06;6.65;;;1.48;;
83251;SDS011;73147;50.230;2.114;2024-03-02T08:23:33;10.10;;;6.05;;
83251;SDS011;73147;50.230;2.114;2024-03-02T08:25:59;8.85;;;1.30;;
83251;SDS011;73147;50.230;2.114;2024-03-02T08:28:25;10.10;;;2.78;;
83251;SDS011;73147;50.230;2.114;2024-03-02T08:30:52;9.88;;;2.05;;
83251;SDS011;73147;50.230;2.114;2024-03-02T08:33:18;6.38;;;2.03;;
83251;SDS011;73147;50.230;2.114;2024-03-02T08:35:44;6.35;;;2.42;;
83251;SDS011;73147;50.230;2.114;2024-03-02T08:38:13;8.75;;;3.25;;
83251;SDS011;73147;50.230;2.114;2024-03-02T08:40:39;9.90;;;2.65;;
83251;SDS011;73147;50.230;2.114;2024-03-02T08:43:05;9.38;;;2.38;;
83251;SDS011;73147;50.230;2.114;2024-03-02T08:45:32;7.18;;;2.17;;
83251;SDS011;73147;50.230;2.114;2024-03-02T08:47:59;9.95;;;1.60;;
83251;SDS011;73147;50.230;2.114;2024-03-02T08:50:25;7.70;;;1.73;;
83251;SDS011;73147;50.230;2.114;2024-03-02T08:52:52;9.88;;;2.33;;
83251;SDS011;73147;50.230;2.114;2024-03-02T08:55:18;5.45;;;1.63;;
83251;SDS011;73147;50.230;2.114;2024-03-02T08:57:44;8.90;;;2.10;;
83251;SDS011;73147;50.230;2.114;2024-03-02T09:00:10;8.02;;;1.67;;
83251;SDS011;73147;50.230;2.114;2024-03-02T09:02:36;5.75;;;1.90;;
83251;SDS011;73147;50.230;2.114;2024-03-02T09:05:02;8.07;;;2.15;;
83251;SDS011;73147;50.230;2.114;2024-03-02T09:07:29;7.45;;;2.28;;
83251;SDS011;73147;50.230;2.114;2024-03-02T09:09:55;11.98;;;2.13;;
83251;SDS011;73147;50.230;2.114;2024-03-02T09:12:21;6.43;;;1.60;;
83251;SDS011;73147;50.230;2.114;2024-03-02T09:14:47;7.70;;;1.65;;
83251;SDS011;73147;50.230;2.114;2024-03-02T09:17:13;9.90;;;1.50;;
83251;SDS011;73147;50.230;2.114;2024-03-02T09:19:39;8.85;;;2.03;;
83251;SDS011;73147;50.230;2.114;2024-03-02T09:22:05;8.90;;;2.47;;
83251;SDS011;73147;50.230;2.114;2024-03-02T09:24:32;13.30;;;2.83;;
83251;SDS011;73147;50.230;2.114;2024-03-02T09:27:01;13.20;;;3.42;;
83251;SDS011;73147;50.230;2.114;2024-03-02T09:29:27;10.38;;;3.00;;
83251;SDS011;73147;50.230;2.114;2024-03-02T09:31:54;6.85;;;1.65;;
83251;SDS011;73147;50.230;2.114;2024-03-02T09:34:20;11.15;;;2.67;;
83251;SDS011;73147;50.230;2.114;2024-03-02T09:36:47;17.80;;;4.95;;
83251;SDS011;73147;50.230;2.114;2024-03-02T09:39:13;14.25;;;3.25;;
83251;SDS011;73147;50.230;2.114;2024-03-02T09:41:40;14.90;;;4.65;;
83251;SDS011;73147;50.230;2.114;2024-03-02T09:44:06;15.40;;;3.50;;
83251;SDS011;73147;50.230;2.114;2024-03-02T09:46:32;6.85;;;2.38;;
83251;SDS011;73147;50.230;2.114;2024-03-02T09:48:58;13.52;;;4.15;;
83251;SDS011;73147;50.230;2.114;2024-03-02T09:51:24;10.40;;;3.60;;
83251;SDS011;73147;50.230;2.114;2024-03-02T09:53:50;9.27;;;1.70;;
83251;SDS011;73147;50.230;2.114;2024-03-02T09:56:18;10.07;;;3.03;;
83251;SDS011;73147;50.230;2.114;2024-03-02T09:58:44;12.05;;;4.03;;
83251;SDS011;73147;50.230;2.114;2024-03-02T10:01:10;10.40;;;3.25;;
83251;SDS011;73147;50.230;2.114;2024-03-02T10:03:36;6.72;;;1.63;;
83251;SDS011;73147;50.230;2.114;2024-03-02T10:06:18;10.55;;;3.40;;
83251;SDS011;73147;50.230;2.114;2024-03-02T10:08:45;7.63;;;1.58;;
83251;SDS011;73147;50.230;2.114;2024-03-02T10:11:11;19.55;;;4.65;;
83251;SDS011;73147;50.230;2.114;2024-03-02T10:13:57;15.38;;;4.53;;
83251;SDS011;73147;50.230;2.114;2024-03-02T10:16:29;9.43;;;2.75;;
83251;SDS011;73147;50.230;2.114;2024-03-02T10:18:55;10.18;;;3.63;;
83251;SDS011;73147;50.230;2.114;2024-03-02T10:21:21;15.65;;;4.75;;
83251;SDS011;73147;50.230;2.114;2024-03-02T10:23:49;10.82;;;2.58;;
83251;SDS011;73147;50.230;2.114;2024-03-02T10:26:18;7.63;;;2.30;;
83251;SDS011;73147;50.230;2.114;2024-03-02T10:28:48;10.93;;;3.75;;
83251;SDS011;73147;50.230;2.114;2024-03-02T10:31:15;6.30;;;2.83;;
83251;SDS011;73147;50.230;2.114;2024-03-02T10:33:42;10.32;;;3.35;;
83251;SDS011;73147;50.230;2.114;2024-03-02T10:36:08;6.75;;;2.90;;
83251;SDS011;73147;50.230;2.114;2024-03-02T10:38:34;7.70;;;3.05;;
83251;SDS011;73147;50.230;2.114;2024-03-02T10:41:00;15.27;;;5.80;;
83251;SDS011;73147;50.230;2.114;2024-03-02T10:43:28;6.22;;;1.60;;
83251;SDS011;73147;50.230;2.114;2024-03-02T10:45:55;9.32;;;2.33;;
83251;SDS011;73147;50.230;2.114;2024-03-02T10:48:22;19.08;;;4.43;;
83251;SDS011;73147;50.230;2.114;2024-03-02T10:50:48;8.65;;;3.38;;
83251;SDS011;73147;50.230;2.114;2024-03-02T10:53:16;7.82;;;2.55;;
83251;SDS011;73147;50.230;2.114;2024-03-02T10:55:42;5.28;;;1.65;;
83251;SDS011;73147;50.230;2.114;2024-03-02T10:58:08;11.77;;;2.22;;
83251;SDS011;73147;50.230;2.114;2024-03-02T11:00:37;9.85;;;1.42;;
83251;SDS011;73147;50.230;2.114;2024-03-02T11:03:07;7.32;;;1.42;;
83251;SDS011;73147;50.230;2.114;2024-03-02T11:05:36;5.43;;;1.55;;
83251;SDS011;73147;50.230;2.114;2024-03-02T11:08:08;8.43;;;1.45;;
83251;SDS011;73147;50.230;2.114;2024-03-02T11:10:35;5.50;;;2.10;;
83251;SDS011;73147;50.230;2.114;2024-03-02T11:13:02;4.63;;;1.00;;
83251;SDS011;73147;50.230;2.114;2024-03-02T11:15:31;4.93;;;2.15;;
83251;SDS011;73147;50.230;2.114;2024-03-02T11:17:57;5.88;;;1.48;;
83251;SDS011;73147;50.230;2.114;2024-03-02T11:20:23;6.32;;;1.27;;
83251;SDS011;73147;50.230;2.114;2024-03-02T11:22:50;8.98;;;2.17;;
83251;SDS011;73147;50.230;2.114;2024-03-02T11:25:23;4.22;;;1.13;;
83251;SDS011;73147;50.230;2.114;2024-03-02T11:33:03;6.85;;;1.83;;
83251;SDS011;73147;50.230;2.114;2024-03-02T11:35:33;5.47;;;0.77;;
83251;SDS011;73147;50.230;2.114;2024-03-02T11:37:59;5.22;;;0.63;;
83251;SDS011;73147;50.230;2.114;2024-03-02T11:40:25;5.70;;;0.65;;
83251;SDS011;73147;50.230;2.114;2024-03-02T11:42:51;5.72;;;1.45;;
83251;SDS011;73147;50.230;2.114;2024-03-02T11:45:25;7.47;;;1.05;;
83251;SDS011;73147;50.230;2.114;2024-03-02T11:47:53;6.22;;;1.15;;
83251;SDS011;73147;50.230;2.114;2024-03-02T11:50:35;14.85;;;0.77;;
83251;SDS011;73147;50.230;2.114;2024-03-02T11:53:08;2.30;;;0.60;;
83251;SDS011;73147;50.230;2.114;2024-03-02T11:55:37;5.55;;;0.88;;
83251;SDS011;73147;50.230;2.114;2024-03-02T11:58:04;5.88;;;1.15;;
83251;SDS011;73147;50.230;2.114;2024-03-02T12:00:31;4.60;;;1.13;;
83251;SDS011;73147;50.230;2.114;2024-03-02T12:03:10;4.00;;;0.32;;
83251;SDS011;73147;50.230;2.114;2024-03-02T12:05:37;2.65;;;0.45;;
83251;SDS011;73147;50.230;2.114;2024-03-02T12:08:05;2.78;;;0.43;;
83251;SDS011;73147;50.230;2.114;2024-03-02T12:10:35;3.45;;;1.00;;
83251;SDS011;73147;50.230;2.114;2024-03-02T12:13:04;7.53;;;2.03;;
83251;SDS011;73147;50.230;2.114;2024-03-02T12:15:32;1.95;;;0.40;;
83251;SDS011;73147;50.230;2.114;2024-03-02T12:17:58;3.55;;;0.73;;
83251;SDS011;73147;50.230;2.114;2024-03-02T12:20:26;3.45;;;0.68;;
83251;SDS011;73147;50.230;2.114;2024-03-02T12:22:54;2.00;;;0.60;;
83251;SDS011;73147;50.230;2.114;2024-03-02T12:25:20;6.88;;;0.73;;
83251;SDS011;73147;50.230;2.114;2024-03-02T12:27:47;6.68;;;1.48;;
83251;SDS011;73147;50.230;2.114;2024-03-02T12:30:16;3.92;;;1.35;;
83251;SDS011;73147;50.230;2.114;2024-03-02T12:32:42;3.05;;;0.57;;
83251;SDS011;73147;50.230;2.114;2024-03-02T12:35:09;3.17;;;0.70;;
83251;SDS011;73147;50.230;2.114;2024-03-02T12:37:46;2.08;;;1.05;;
83251;SDS011;73147;50.230;2.114;2024-03-02T12:40:13;2.97;;;0.98;;
83251;SDS011;73147;50.230;2.114;2024-03-02T12:42:39;5.32;;;1.77;;
83251;SDS011;73147;50.230;2.114;2024-03-02T12:45:07;1.98;;;0.55;;
83251;SDS011;73147;50.230;2.114;2024-03-02T12:47:33;2.33;;;1.02;;
83251;SDS011;73147;50.230;2.114;2024-03-02T12:49:59;5.13;;;2.65;;
83251;SDS011;73147;50.230;2.114;2024-03-02T12:52:26;3.85;;;1.15;;
83251;SDS011;73147;50.230;2.114;2024-03-02T12:54:52;2.70;;;1.02;;
83251;SDS011;73147;50.230;2.114;2024-03-02T12:57:24;2.85;;;2.05;;
83251;SDS011;73147;50.230;2.114;2024-03-02T12:59:51;3.25;;;1.58;;
83251;SDS011;73147;50.230;2.114;2024-03-02T13:02:17;4.05;;;1.25;;
83251;SDS011;73147;50.230;2.114;2024-03-02T13:04:43;6.10;;;2.17;;
83251;SDS011;73147;50.230;2.114;2024-03-02T13:07:12;3.42;;;1.20;;
83251;SDS011;73147;50.230;2.114;2024-03-02T13:09:39;3.67;;;0.77;;
83251;SDS011;73147;50.230;2.114;2024-03-02T13:12:05;3.03;;;0.90;;
83251;SDS011;73147;50.230;2.114;2024-03-02T13:14:35;3.28;;;0.70;;
83251;SDS011;73147;50.230;2.114;2024-03-02T13:17:01;4.93;;;2.00;;
83251;SDS011;73147;50.230;2.114;2024-03-02T13:19:30;3.20;;;0.40;;
83251;SDS011;73147;50.230;2.114;2024-03-02T13:21:57;2.15;;;0.47;;
83251;SDS011;73147;50.230;2.114;2024-03-02T13:24:23;4.95;;;1.83;;
83251;SDS011;73147;50.230;2.114;2024-03-02T13:26:54;4.75;;;0.85;;
83251;SDS011;73147;50.230;2.114;2024-03-02T13:29:23;7.10;;;3.13;;
83251;SDS011;73147;50.230;2.114;2024-03-02T13:31:49;6.20;;;1.17;;
83251;SDS011;73147;50.230;2.114;2024-03-02T13:34:15;2.28;;;0.47;;
83251;SDS011;73147;50.230;2.114;2024-03-02T13:36:41;5.55;;;1.35;;
83251;SDS011;73147;50.230;2.114;2024-03-02T13:39:07;5.45;;;0.93;;
83251;SDS011;73147;50.230;2.114;2024-03-02T13:41:35;5.07;;;1.02;;
83251;SDS011;73147;50.230;2.114;2024-03-02T13:44:01;5.40;;;0.60;;
83251;SDS011;73147;50.230;2.114;2024-03-02T13:46:28;3.95;;;1.10;;
83251;SDS011;73147;50.230;2.114;2024-03-02T13:48:54;4.35;;;1.73;;
83251;SDS011;73147;50.230;2.114;2024-03-02T13:51:20;4.75;;;1.08;;
83251;SDS011;73147;50.230;2.114;2024-03-02T13:53:46;4.07;;;1.60;;
83251;SDS011;73147;50.230;2.114;2024-03-02T13:56:12;9.07;;;3.47;;
83251;SDS011;73147;50.230;2.114;2024-03-02T13:58:38;8.13;;;1.20;;
83251;SDS011;73147;50.230;2.114;2024-03-02T14:01:05;8.85;;;4.40;;
83251;SDS011;73147;50.230;2.114;2024-03-02T14:03:31;10.13;;;4.47;;
83251;SDS011;73147;50.230;2.114;2024-03-02T14:05:57;6.68;;;2.55;;
83251;SDS011;73147;50.230;2.114;2024-03-02T14:08:23;1.95;;;0.70;;
83251;SDS011;73147;50.230;2.114;2024-03-02T14:10:49;4.25;;;1.95;;
83251;SDS011;73147;50.230;2.114;2024-03-02T14:13:16;3.00;;;1.75;;
83251;SDS011;73147;50.230;2.114;2024-03-02T14:15:42;8.43;;;3.67;;
83251;SDS011;73147;50.230;2.114;2024-03-02T14:18:08;4.32;;;2.88;;
83251;SDS011;73147;50.230;2.114;2024-03-02T14:20:37;6.85;;;3.80;;
83251;SDS011;73147;50.230;2.114;2024-03-02T14:23:03;6.35;;;2.55;;
83251;SDS011;73147;50.230;2.114;2024-03-02T14:25:30;4.20;;;1.33;;
83251;SDS011;73147;50.230;2.114;2024-03-02T14:27:58;9.10;;;3.50;;
83251;SDS011;73147;50.230;2.114;2024-03-02T14:30:24;6.20;;;2.92;;
83251;SDS011;73147;50.230;2.114;2024-03-02T14:32:50;9.68;;;3.47;;
83251;SDS011;73147;50.230;2.114;2024-03-02T14:35:16;8.43;;;3.88;;
83251;SDS011;73147;50.230;2.114;2024-03-02T14:37:43;9.95;;;3.70;;
83251;SDS011;73147;50.230;2.114;2024-03-02T14:40:09;5.90;;;3.08;;
83251;SDS011;73147;50.230;2.114;2024-03-02T14:42:36;8.88;;;4.63;;
83251;SDS011;73147;50.230;2.114;2024-03-02T14:45:02;7.78;;;2.60;;
83251;SDS011;73147;50.230;2.114;2024-03-02T14:47:31;10.00;;;4.22;;
83251;SDS011;73147;50.230;2.114;2024-03-02T14:49:58;12.38;;;3.97;;
83251;SDS011;73147;50.230;2.114;2024-03-02T14:52:24;6.50;;;3.05;;
83251;SDS011;73147;50.230;2.114;2024-03-02T14:54:51;7.47;;;2.72;;
83251;SDS011;73147;50.230;2.114;2024-03-02T14:57:17;9.10;;;5.03;;
83251;SDS011;73147;50.230;2.114;2024-03-02T14:59:43;13.57;;;6.28;;
83251;SDS011;73147;50.230;2.114;2024-03-02T15:02:09;19.08;;;8.85;;
83251;SDS011;73147;50.230;2.114;2024-03-02T15:04:35;12.20;;;5.25;;
83251;SDS011;73147;50.230;2.114;2024-03-02T15:07:01;13.75;;;6.38;;